createdAt,value
2023-03-26T00:00:13.593Z,1007.51
2023-03-26T00:01:14.062Z,1007.50
2023-03-26T00:02:19.164Z,1007.50
2023-03-26T00:03:13.179Z,1007.52
2023-03-26T00:04:13.261Z,1007.53
2023-03-26T00:05:13.199Z,1007.55
2023-03-26T00:06:28.794Z,1007.54
2023-03-26T00:07:12.956Z,1007.52
2023-03-26T00:08:12.908Z,1007.55
2023-03-26T00:09:13.272Z,1007.59
2023-03-26T00:10:13.582Z,1007.58
2023-03-26T00:11:19.474Z,1007.59
2023-03-26T00:12:12.854Z,1007.59
2023-03-26T00:13:13.864Z,1007.60
2023-03-26T00:14:14.225Z,1007.61
2023-03-26T00:15:13.596Z,1007.60
2023-03-26T00:16:14.202Z,1007.59
2023-03-26T00:17:13.543Z,1007.54
2023-03-26T00:18:14.708Z,1007.61
2023-03-26T00:19:13.648Z,1007.58
2023-03-26T00:20:13.655Z,1007.59
2023-03-26T00:21:13.617Z,1007.61
2023-03-26T00:22:13.699Z,1007.60
2023-03-26T00:23:13.755Z,1007.62
2023-03-26T00:24:13.669Z,1007.60
2023-03-26T00:25:13.706Z,1007.59
2023-03-26T00:26:13.659Z,1007.59
2023-03-26T00:27:13.639Z,1007.57
2023-03-26T00:28:13.664Z,1007.54
2023-03-26T00:29:13.618Z,1007.52
2023-03-26T00:30:13.604Z,1007.52
2023-03-26T00:31:13.826Z,1007.59
2023-03-26T00:32:13.130Z,1007.51
2023-03-26T00:33:13.073Z,1007.54
2023-03-26T00:34:13.004Z,1007.51
2023-03-26T00:35:12.907Z,1007.51
2023-03-26T00:36:13.012Z,1007.55
2023-03-26T00:37:13.073Z,1007.49
2023-03-26T00:38:13.311Z,1007.41
2023-03-26T00:39:13.675Z,1007.46
2023-03-26T00:40:13.791Z,1007.45
2023-03-26T00:41:13.653Z,1007.45
2023-03-26T00:42:14.029Z,1007.46
2023-03-26T00:43:13.355Z,1007.42
2023-03-26T00:44:13.493Z,1007.38
2023-03-26T00:45:13.963Z,1007.41
2023-03-26T00:46:13.206Z,1007.39
2023-03-26T00:47:13.585Z,1007.36
2023-03-26T00:48:13.631Z,1007.39
2023-03-26T00:49:13.655Z,1007.37
2023-03-26T00:50:13.606Z,1007.38
2023-03-26T00:51:13.633Z,1007.38
2023-03-26T00:52:13.488Z,1007.36
2023-03-26T00:53:13.516Z,1007.35
2023-03-26T00:54:13.367Z,1007.32
2023-03-26T00:55:13.533Z,1007.34
2023-03-26T00:56:13.461Z,1007.32
2023-03-26T00:57:20.200Z,1007.31
2023-03-26T00:58:13.003Z,1007.31
2023-03-26T00:59:12.975Z,1007.23
2023-03-26T01:00:13.018Z,1007.29
2023-03-26T01:01:13.054Z,1007.25
2023-03-26T01:02:12.990Z,1007.23
2023-03-26T01:03:19.193Z,1007.21
2023-03-26T01:04:13.254Z,1007.19
2023-03-26T01:05:13.485Z,1007.22
2023-03-26T01:06:13.668Z,1007.18
2023-03-26T01:07:13.702Z,1007.15
2023-03-26T01:08:13.669Z,1007.14
2023-03-26T01:09:13.529Z,1007.19
2023-03-26T01:10:13.401Z,1007.17
2023-03-26T01:11:13.491Z,1007.23
2023-03-26T01:12:13.725Z,1007.13
2023-03-26T01:13:13.897Z,1007.18
2023-03-26T01:14:12.740Z,1007.14
2023-03-26T01:15:13.634Z,1007.13
2023-03-26T01:16:13.978Z,1007.12
2023-03-26T01:17:13.348Z,1007.09
2023-03-26T01:18:18.343Z,1007.11
2023-03-26T01:19:13.251Z,1007.10
2023-03-26T01:20:13.353Z,1007.05
2023-03-26T01:21:13.269Z,1007.07
2023-03-26T01:22:13.418Z,1007.04
2023-03-26T01:23:13.373Z,1006.97
2023-03-26T01:24:13.585Z,1007.02
2023-03-26T01:25:13.678Z,1007.01
2023-03-26T01:26:13.861Z,1007.07
2023-03-26T01:27:13.759Z,1007.03
2023-03-26T01:28:13.767Z,1007.02
2023-03-26T01:29:13.667Z,1007.03
2023-03-26T01:30:13.736Z,1007.02
2023-03-26T01:31:13.779Z,1006.94
2023-03-26T01:32:14.108Z,1006.95
2023-03-26T01:33:13.214Z,1006.95
2023-03-26T01:34:13.567Z,1006.95
2023-03-26T01:35:13.484Z,1006.94
2023-03-26T01:36:13.294Z,1006.98
2023-03-26T01:37:13.467Z,1006.96
2023-03-26T01:38:13.468Z,1006.97
2023-03-26T01:39:13.654Z,1006.95
2023-03-26T01:40:13.595Z,1006.90
2023-03-26T01:41:13.506Z,1006.92
2023-03-26T01:42:13.597Z,1006.91
2023-03-26T01:43:13.414Z,1006.92
2023-03-26T01:44:13.735Z,1006.85
2023-03-26T01:45:13.721Z,1006.87
2023-03-26T01:46:14.659Z,1006.91
2023-03-26T01:47:13.795Z,1006.85
2023-03-26T01:48:13.698Z,1006.80
2023-03-26T01:49:13.922Z,1006.82
2023-03-26T01:50:12.832Z,1006.81
2023-03-26T01:51:13.741Z,1006.83
2023-03-26T01:52:13.792Z,1006.83
2023-03-26T01:53:13.681Z,1006.77
2023-03-26T01:54:13.751Z,1006.77
2023-03-26T01:55:13.804Z,1006.74
2023-03-26T01:56:14.166Z,1006.76
2023-03-26T01:57:13.388Z,1006.76
2023-03-26T01:58:13.337Z,1006.72
2023-03-26T01:59:13.139Z,1006.73
2023-03-26T02:00:13.060Z,1006.68
2023-03-26T02:01:13.098Z,1006.67
2023-03-26T02:02:13.256Z,1006.67
2023-03-26T02:03:13.265Z,1006.68
2023-03-26T02:04:13.364Z,1006.66
2023-03-26T02:05:18.304Z,1006.65
2023-03-26T02:06:13.224Z,1006.64
2023-03-26T02:07:13.213Z,1006.59
2023-03-26T02:08:13.036Z,1006.59
2023-03-26T02:09:12.870Z,1006.63
2023-03-26T02:10:13.799Z,1006.56
2023-03-26T02:11:13.728Z,1006.56
2023-03-26T02:12:13.619Z,1006.56
2023-03-26T02:13:13.523Z,1006.55
2023-03-26T02:14:13.510Z,1006.53
2023-03-26T02:15:13.676Z,1006.51
2023-03-26T02:16:13.856Z,1006.49
2023-03-26T02:17:13.947Z,1006.47
2023-03-26T02:18:12.856Z,1006.50
2023-03-26T02:19:13.833Z,1006.44
2023-03-26T02:20:18.746Z,1006.43
2023-03-26T02:21:13.758Z,1006.46
2023-03-26T02:22:13.693Z,1006.39
2023-03-26T02:23:13.625Z,1006.35
2023-03-26T02:24:13.631Z,1006.41
2023-03-26T02:25:13.817Z,1006.41
2023-03-26T02:26:19.209Z,1006.38
2023-03-26T02:27:13.187Z,1006.36
2023-03-26T02:28:13.056Z,1006.33
2023-03-26T02:29:12.897Z,1006.31
2023-03-26T02:30:12.930Z,1006.28
2023-03-26T02:31:13.030Z,1006.30
2023-03-26T02:32:13.196Z,1006.29
2023-03-26T02:33:13.149Z,1006.23
2023-03-26T02:34:13.084Z,1006.20
2023-03-26T02:35:13.376Z,1006.18
2023-03-26T02:36:13.405Z,1006.13
2023-03-26T02:37:13.922Z,1006.12
2023-03-26T02:38:13.157Z,1006.16
2023-03-26T02:39:13.492Z,1006.14
2023-03-26T02:40:13.670Z,1006.09
2023-03-26T02:41:13.976Z,1006.08
2023-03-26T02:42:13.296Z,1006.07
2023-03-26T02:43:13.345Z,1006.12
2023-03-26T02:44:13.429Z,1006.09
2023-03-26T02:45:13.747Z,1006.10
2023-03-26T02:46:13.770Z,1006.10
2023-03-26T02:47:13.828Z,1006.09
2023-03-26T02:48:13.864Z,1006.10
2023-03-26T02:49:12.857Z,1006.11
2023-03-26T02:50:13.769Z,1006.13
2023-03-26T02:51:14.293Z,1006.08
2023-03-26T02:52:13.663Z,1006.06
2023-03-26T02:53:14.026Z,1006.04
2023-03-26T02:54:13.237Z,1006.07
2023-03-26T02:55:13.196Z,1006.04
2023-03-26T02:56:13.208Z,1006.07
2023-03-26T02:57:13.200Z,1006.04
2023-03-26T02:58:13.092Z,1006.03
2023-03-26T02:59:13.320Z,1006.07
2023-03-26T03:00:13.270Z,1006.05
2023-03-26T03:01:13.285Z,1006.04
2023-03-26T03:02:18.357Z,1006.04
2023-03-26T03:03:13.394Z,1006.04
2023-03-26T03:04:13.422Z,1005.97
2023-03-26T03:05:13.581Z,1006.03
2023-03-26T03:06:13.834Z,1005.98
2023-03-26T03:07:14.274Z,1006.01
2023-03-26T03:08:13.528Z,1006.00
2023-03-26T03:09:13.870Z,1005.94
2023-03-26T03:10:13.839Z,1005.97
2023-03-26T03:11:12.804Z,1005.98
2023-03-26T03:12:17.893Z,1005.95
2023-03-26T03:13:12.750Z,1005.97
2023-03-26T03:14:13.632Z,1005.91
2023-03-26T03:15:14.123Z,1005.93
2023-03-26T03:16:13.066Z,1005.90
2023-03-26T03:17:13.258Z,1005.87
2023-03-26T03:18:13.153Z,1005.83
2023-03-26T03:19:13.005Z,1005.81
2023-03-26T03:20:12.987Z,1005.81
2023-03-26T03:21:12.834Z,1005.79
2023-03-26T03:22:13.971Z,1005.77
2023-03-26T03:23:13.134Z,1005.77
2023-03-26T03:24:13.294Z,1005.81
2023-03-26T03:25:13.434Z,1005.75
2023-03-26T03:26:13.308Z,1005.72
2023-03-26T03:27:13.245Z,1005.70
2023-03-26T03:28:13.277Z,1005.69
2023-03-26T03:29:13.334Z,1005.62
2023-03-26T03:30:13.642Z,1005.62
2023-03-26T03:31:13.841Z,1005.59
2023-03-26T03:32:12.760Z,1005.59
2023-03-26T03:33:13.635Z,1005.64
2023-03-26T03:34:13.480Z,1005.60
2023-03-26T03:35:13.788Z,1005.57
2023-03-26T03:36:20.292Z,1005.57
2023-03-26T03:37:13.583Z,1005.58
2023-03-26T03:38:13.665Z,1005.57
2023-03-26T03:39:13.550Z,1005.53
2023-03-26T03:40:13.507Z,1005.51
2023-03-26T03:41:13.837Z,1005.51
2023-03-26T03:42:14.064Z,1005.49
2023-03-26T03:43:13.228Z,1005.50
2023-03-26T03:44:13.521Z,1005.46
2023-03-26T03:45:13.606Z,1005.44
2023-03-26T03:46:13.765Z,1005.45
2023-03-26T03:47:13.746Z,1005.46
2023-03-26T03:48:13.662Z,1005.45
2023-03-26T03:49:13.493Z,1005.44
2023-03-26T03:50:13.657Z,1005.45
2023-03-26T03:51:13.806Z,1005.42
2023-03-26T03:52:13.904Z,1005.45
2023-03-26T03:53:12.741Z,1005.44
2023-03-26T03:54:13.656Z,1005.40
2023-03-26T03:55:13.586Z,1005.43
2023-03-26T03:56:13.705Z,1005.40
2023-03-26T03:57:13.627Z,1005.38
2023-03-26T03:58:13.535Z,1005.38
2023-03-26T03:59:13.444Z,1005.39
2023-03-26T04:00:13.505Z,1005.39
2023-03-26T04:01:13.810Z,1005.35
2023-03-26T04:02:13.751Z,1005.37
2023-03-26T04:03:13.811Z,1005.34
2023-03-26T04:04:13.876Z,1005.33
2023-03-26T04:05:12.808Z,1005.34
2023-03-26T04:06:13.969Z,1005.35
2023-03-26T04:07:12.977Z,1005.31
2023-03-26T04:08:13.270Z,1005.31
2023-03-26T04:09:13.180Z,1005.30
2023-03-26T04:10:13.281Z,1005.28
2023-03-26T04:11:13.092Z,1005.22
2023-03-26T04:12:13.041Z,1005.25
2023-03-26T04:13:13.100Z,1005.26
2023-03-26T04:14:13.076Z,1005.20
2023-03-26T04:15:13.100Z,1005.23
2023-03-26T04:16:13.129Z,1005.19
2023-03-26T04:17:13.198Z,1005.23
2023-03-26T04:18:13.069Z,1005.21
2023-03-26T04:19:12.947Z,1005.17
2023-03-26T04:20:13.017Z,1005.19
2023-03-26T04:21:13.017Z,1005.14
2023-03-26T04:22:13.271Z,1005.10
2023-03-26T04:23:13.716Z,1005.07
2023-03-26T04:24:13.811Z,1005.06
2023-03-26T04:25:13.932Z,1005.04
2023-03-26T04:26:12.847Z,1005.02
2023-03-26T04:27:13.886Z,1005.03
2023-03-26T04:28:13.083Z,1004.99
2023-03-26T04:29:13.199Z,1005.02
2023-03-26T04:30:13.094Z,1005.01
2023-03-26T04:31:13.333Z,1004.98
2023-03-26T04:32:13.311Z,1004.97
2023-03-26T04:33:13.297Z,1004.96
2023-03-26T04:34:13.436Z,1004.93
2023-03-26T04:35:13.496Z,1004.90
2023-03-26T04:36:13.424Z,1004.96
2023-03-26T04:37:13.537Z,1004.92
2023-03-26T04:38:13.466Z,1004.89
2023-03-26T04:39:13.837Z,1004.88
2023-03-26T04:40:14.061Z,1004.86
2023-03-26T04:41:12.967Z,1004.84
2023-03-26T04:42:12.873Z,1004.83
2023-03-26T04:43:13.825Z,1004.80
2023-03-26T04:44:13.984Z,1004.80
2023-03-26T04:45:12.976Z,1004.80
2023-03-26T04:46:12.927Z,1004.76
2023-03-26T04:47:12.820Z,1004.74
2023-03-26T04:48:13.689Z,1004.71
2023-03-26T04:49:13.961Z,1004.69
2023-03-26T04:50:13.695Z,1004.68
2023-03-26T04:51:13.515Z,1004.69
2023-03-26T04:52:13.341Z,1004.66
2023-03-26T04:53:13.422Z,1004.61
2023-03-26T04:54:13.654Z,1004.63
2023-03-26T04:55:13.552Z,1004.63
2023-03-26T04:56:13.454Z,1004.62
2023-03-26T04:57:13.530Z,1004.57
2023-03-26T04:58:13.467Z,1004.54
2023-03-26T04:59:13.445Z,1004.54
2023-03-26T05:00:13.559Z,1004.54
2023-03-26T05:01:13.646Z,1004.54
2023-03-26T05:02:13.903Z,1004.56
2023-03-26T05:03:12.904Z,1004.53
2023-03-26T05:04:13.106Z,1004.51
2023-03-26T05:05:13.349Z,1004.52
2023-03-26T05:06:13.172Z,1004.55
2023-03-26T05:07:14.162Z,1004.55
2023-03-26T05:08:13.015Z,1004.53
2023-03-26T05:09:12.808Z,1004.53
2023-03-26T05:10:13.906Z,1004.52
2023-03-26T05:11:13.421Z,1004.50
2023-03-26T05:12:13.526Z,1004.51
2023-03-26T05:13:13.575Z,1004.49
2023-03-26T05:14:13.501Z,1004.44
2023-03-26T05:15:13.483Z,1004.46
2023-03-26T05:16:13.518Z,1004.44
2023-03-26T05:17:13.427Z,1004.43
2023-03-26T05:18:13.668Z,1004.39
2023-03-26T05:19:13.651Z,1004.37
2023-03-26T05:20:13.750Z,1004.40
2023-03-26T05:21:13.935Z,1004.38
2023-03-26T05:22:12.928Z,1004.36
2023-03-26T05:23:12.984Z,1004.34
2023-03-26T05:24:12.823Z,1004.36
2023-03-26T05:25:13.802Z,1004.34
2023-03-26T05:26:13.740Z,1004.30
2023-03-26T05:27:13.643Z,1004.29
2023-03-26T05:28:13.560Z,1004.28
2023-03-26T05:29:13.480Z,1004.25
2023-03-26T05:30:13.396Z,1004.27
2023-03-26T05:31:13.430Z,1004.26
2023-03-26T05:32:13.711Z,1004.22
2023-03-26T05:33:13.925Z,1004.21
2023-03-26T05:34:13.341Z,1004.20
2023-03-26T05:35:13.497Z,1004.19
2023-03-26T05:36:13.522Z,1004.19
2023-03-26T05:37:13.443Z,1004.19
2023-03-26T05:38:13.449Z,1004.18
2023-03-26T05:39:13.480Z,1004.18
2023-03-26T05:40:13.372Z,1004.13
2023-03-26T05:41:13.481Z,1004.11
2023-03-26T05:42:13.794Z,1004.11
2023-03-26T05:43:13.834Z,1004.09
2023-03-26T05:44:13.849Z,1004.07
2023-03-26T05:45:13.841Z,1004.05
2023-03-26T05:46:13.762Z,1004.04
2023-03-26T05:47:13.670Z,1004.04
2023-03-26T05:48:13.586Z,1004.01
2023-03-26T05:49:13.648Z,1003.99
2023-03-26T05:50:13.486Z,1004.02
2023-03-26T05:51:13.305Z,1003.95
2023-03-26T05:52:13.253Z,1003.92
2023-03-26T05:53:13.197Z,1003.94
2023-03-26T05:54:13.283Z,1003.94
2023-03-26T05:55:13.616Z,1003.90
2023-03-26T05:56:13.423Z,1003.90
2023-03-26T05:57:13.424Z,1003.90
2023-03-26T05:58:13.621Z,1003.93
2023-03-26T05:59:13.698Z,1003.90
2023-03-26T06:00:13.871Z,1003.87
2023-03-26T06:01:12.951Z,1003.87
2023-03-26T06:02:12.870Z,1003.83
2023-03-26T06:03:13.184Z,1003.80
2023-03-26T06:04:13.418Z,1003.84
2023-03-26T06:05:14.070Z,1003.86
2023-03-26T06:06:12.930Z,1003.82
2023-03-26T06:07:13.005Z,1003.81
2023-03-26T06:08:13.457Z,1003.80
2023-03-26T06:09:13.379Z,1003.78
2023-03-26T06:10:17.980Z,1003.78
2023-03-26T06:11:12.881Z,1003.70
2023-03-26T06:12:13.300Z,1003.74
2023-03-26T06:13:13.606Z,1003.71
2023-03-26T06:14:13.695Z,1003.66
2023-03-26T06:15:14.740Z,1003.66
2023-03-26T06:16:27.148Z,1003.66
2023-03-26T06:17:13.259Z,1003.66
2023-03-26T06:18:13.703Z,1003.61
2023-03-26T06:19:13.826Z,1003.60
2023-03-26T06:20:14.048Z,1003.60
2023-03-26T06:21:13.115Z,1003.59
2023-03-26T06:22:13.237Z,1003.57
2023-03-26T06:23:13.193Z,1003.56
2023-03-26T06:24:13.093Z,1003.55
2023-03-26T06:25:12.993Z,1003.55
2023-03-26T06:26:13.041Z,1003.52
2023-03-26T06:27:12.938Z,1003.52
2023-03-26T06:28:12.980Z,1003.51
2023-03-26T06:29:12.980Z,1003.47
2023-03-26T06:30:13.015Z,1003.47
2023-03-26T06:31:13.301Z,1003.45
2023-03-26T06:32:19.615Z,1003.49
2023-03-26T06:33:13.334Z,1003.47
2023-03-26T06:34:13.478Z,1003.45
2023-03-26T06:35:13.571Z,1003.48
2023-03-26T06:36:14.029Z,1003.43
2023-03-26T06:37:13.168Z,1003.48
2023-03-26T06:38:13.215Z,1003.49
2023-03-26T06:39:13.142Z,1003.48
2023-03-26T06:40:14.176Z,1003.55
2023-03-26T06:41:14.012Z,1003.52
2023-03-26T06:42:13.495Z,1003.50
2023-03-26T06:43:13.781Z,1003.53
2023-03-26T06:44:13.643Z,1003.59
2023-03-26T06:45:13.738Z,1003.56
2023-03-26T06:46:14.063Z,1003.59
2023-03-26T06:47:12.999Z,1003.55
2023-03-26T06:48:12.871Z,1003.58
2023-03-26T06:49:13.715Z,1003.60
2023-03-26T06:50:13.649Z,1003.58
2023-03-26T06:51:13.598Z,1003.62
2023-03-26T06:52:13.583Z,1003.62
2023-03-26T06:53:13.432Z,1003.60
2023-03-26T06:54:13.273Z,1003.60
2023-03-26T06:55:13.349Z,1003.62
2023-03-26T06:56:13.426Z,1003.62
2023-03-26T06:57:13.489Z,1003.60
2023-03-26T06:58:13.758Z,1003.56
2023-03-26T06:59:13.774Z,1003.56
2023-03-26T07:00:13.680Z,1003.58
2023-03-26T07:01:13.820Z,1003.56
2023-03-26T07:02:13.987Z,1003.56
2023-03-26T07:03:12.949Z,1003.54
2023-03-26T07:04:12.853Z,1003.51
2023-03-26T07:05:12.836Z,1003.54
2023-03-26T07:06:13.913Z,1003.53
2023-03-26T07:07:12.809Z,1003.54
2023-03-26T07:08:13.762Z,1003.54
2023-03-26T07:09:13.707Z,1003.51
2023-03-26T07:10:13.857Z,1003.52
2023-03-26T07:11:13.852Z,1003.47
2023-03-26T07:12:14.154Z,1003.45
2023-03-26T07:13:13.104Z,1003.44
2023-03-26T07:14:13.084Z,1003.45
2023-03-26T07:15:13.117Z,1003.42
2023-03-26T07:16:13.377Z,1003.42
2023-03-26T07:17:43.161Z,1003.42
2023-03-26T07:18:13.024Z,1003.42
2023-03-26T07:19:14.895Z,1003.41
2023-03-26T07:20:13.129Z,1003.38
2023-03-26T07:21:13.193Z,1003.35
2023-03-26T07:22:13.093Z,1003.37
2023-03-26T07:23:12.931Z,1003.37
2023-03-26T07:24:13.053Z,1003.32
2023-03-26T07:25:13.191Z,1003.30
2023-03-26T07:26:13.083Z,1003.32
2023-03-26T07:27:13.022Z,1003.29
2023-03-26T07:28:12.828Z,1003.31
2023-03-26T07:29:13.743Z,1003.28
2023-03-26T07:30:13.990Z,1003.25
2023-03-26T07:31:13.053Z,1003.27
2023-03-26T07:32:13.137Z,1003.26
2023-03-26T07:33:13.103Z,1003.24
2023-03-26T07:34:13.595Z,1003.22
2023-03-26T07:35:13.822Z,1003.23
2023-03-26T07:36:13.755Z,1003.19
2023-03-26T07:37:13.806Z,1003.19
2023-03-26T07:38:13.705Z,1003.16
2023-03-26T07:39:13.663Z,1003.16
2023-03-26T07:40:13.544Z,1003.19
2023-03-26T07:41:13.534Z,1003.17
2023-03-26T07:42:18.329Z,1003.16
2023-03-26T07:43:13.211Z,1003.15
2023-03-26T07:44:13.388Z,1003.11
2023-03-26T07:45:13.363Z,1003.12
2023-03-26T07:46:13.528Z,1003.08
2023-03-26T07:47:13.561Z,1003.09
2023-03-26T07:48:13.489Z,1003.06
2023-03-26T07:49:13.310Z,1003.08
2023-03-26T07:50:13.226Z,1003.05
2023-03-26T07:51:13.429Z,1003.07
2023-03-26T07:52:13.821Z,1003.05
2023-03-26T07:53:13.961Z,1003.07
2023-03-26T07:54:12.876Z,1003.06
2023-03-26T07:55:12.846Z,1003.01
2023-03-26T07:56:14.076Z,1003.02
2023-03-26T07:57:13.440Z,1003.00
2023-03-26T07:58:13.573Z,1003.00
2023-03-26T07:59:13.713Z,1002.97
2023-03-26T08:00:13.631Z,1002.97
2023-03-26T08:01:13.617Z,1002.98
2023-03-26T08:02:13.871Z,1002.94
2023-03-26T08:03:14.079Z,1002.99
2023-03-26T08:04:24.163Z,1002.95
2023-03-26T08:05:13.463Z,1002.92
2023-03-26T08:06:13.366Z,1002.90
2023-03-26T08:07:13.890Z,1002.94
2023-03-26T08:08:13.010Z,1002.89
2023-03-26T08:09:12.950Z,1002.89
2023-03-26T08:10:13.130Z,1002.89
2023-03-26T08:11:13.472Z,1002.90
2023-03-26T08:12:13.534Z,1002.87
2023-03-26T08:13:13.638Z,1002.89
2023-03-26T08:14:13.448Z,1002.86
2023-03-26T08:15:13.430Z,1002.85
2023-03-26T08:16:13.354Z,1002.83
2023-03-26T08:17:13.327Z,1002.87
2023-03-26T08:18:13.469Z,1002.81
2023-03-26T08:19:13.351Z,1002.81
2023-03-26T08:20:13.244Z,1002.81
2023-03-26T08:21:13.432Z,1002.76
2023-03-26T08:22:13.609Z,1002.77
2023-03-26T08:23:13.718Z,1002.75
2023-03-26T08:24:13.788Z,1002.79
2023-03-26T08:25:54.657Z,1002.80
2023-03-26T08:26:14.348Z,1002.74
2023-03-26T08:27:13.311Z,1002.76
2023-03-26T08:28:13.318Z,1002.77
2023-03-26T08:29:13.384Z,1002.72
2023-03-26T08:30:13.583Z,1002.77
2023-03-26T08:31:13.739Z,1002.73
2023-03-26T08:32:13.771Z,1002.72
2023-03-26T08:33:13.925Z,1002.72
2023-03-26T08:34:13.040Z,1002.69
2023-03-26T08:35:13.205Z,1002.70
2023-03-26T08:36:13.132Z,1002.66
2023-03-26T08:37:13.011Z,1002.68
2023-03-26T08:38:17.978Z,1002.68
2023-03-26T08:39:12.885Z,1002.69
2023-03-26T08:40:12.851Z,1002.71
2023-03-26T08:41:13.765Z,1002.71
2023-03-26T08:42:13.643Z,1002.69
2023-03-26T08:43:13.528Z,1002.68
2023-03-26T08:44:13.479Z,1002.68
2023-03-26T08:45:13.523Z,1002.66
2023-03-26T08:46:13.636Z,1002.64
2023-03-26T08:47:13.784Z,1002.66
2023-03-26T08:48:13.798Z,1002.68
2023-03-26T08:49:14.895Z,1002.65
2023-03-26T08:50:13.153Z,1002.63
2023-03-26T08:51:13.239Z,1002.65
2023-03-26T08:52:13.535Z,1002.59
2023-03-26T08:53:13.413Z,1002.59
2023-03-26T08:54:13.229Z,1002.58
2023-03-26T08:55:13.777Z,1002.61
2023-03-26T08:56:13.848Z,1002.63
2023-03-26T08:57:13.680Z,1002.63
2023-03-26T08:58:13.928Z,1002.59
2023-03-26T08:59:13.347Z,1002.60
2023-03-26T09:00:13.350Z,1002.63
2023-03-26T09:01:13.422Z,1002.59
2023-03-26T09:02:13.361Z,1002.61
2023-03-26T09:03:13.994Z,1002.61
2023-03-26T09:04:12.995Z,1002.61
2023-03-26T09:05:12.937Z,1002.63
2023-03-26T09:06:12.985Z,1002.61
2023-03-26T09:07:13.379Z,1002.60
2023-03-26T09:08:13.877Z,1002.61
2023-03-26T09:09:19.033Z,1002.61
2023-03-26T09:10:13.383Z,1002.58
2023-03-26T09:11:13.232Z,1002.58
2023-03-26T09:12:13.189Z,1002.61
2023-03-26T09:13:13.481Z,1002.60
2023-03-26T09:14:13.282Z,1002.61
2023-03-26T09:15:13.150Z,1002.57
2023-03-26T09:16:13.046Z,1002.59
2023-03-26T09:17:12.907Z,1002.54
2023-03-26T09:18:13.666Z,1002.53
2023-03-26T09:19:13.845Z,1002.52
2023-03-26T09:20:13.605Z,1002.56
2023-03-26T09:21:13.539Z,1002.56
2023-03-26T09:22:13.488Z,1002.52
2023-03-26T09:23:14.657Z,1002.54
2023-03-26T09:24:13.162Z,1002.53
2023-03-26T09:25:13.140Z,1002.51
2023-03-26T09:26:13.163Z,1002.55
2023-03-26T09:27:13.106Z,1002.53
2023-03-26T09:28:13.421Z,1002.55
2023-03-26T09:29:13.636Z,1002.54
2023-03-26T09:30:13.685Z,1002.52
2023-03-26T09:31:13.639Z,1002.52
2023-03-26T09:32:13.684Z,1002.50
2023-03-26T09:33:13.743Z,1002.52
2023-03-26T09:34:13.889Z,1002.50
2023-03-26T09:35:14.238Z,1002.49
2023-03-26T09:36:13.530Z,1002.49
2023-03-26T09:37:18.623Z,1002.47
2023-03-26T09:38:13.611Z,1002.47
2023-03-26T09:39:13.816Z,1002.46
2023-03-26T09:40:13.740Z,1002.47
2023-03-26T09:41:14.140Z,1002.47
2023-03-26T09:42:13.131Z,1002.45
2023-03-26T09:43:13.130Z,1002.53
2023-03-26T09:44:13.166Z,1002.48
2023-03-26T09:45:13.089Z,1002.45
2023-03-26T09:46:13.250Z,1002.47
2023-03-26T09:47:13.186Z,1002.46
2023-03-26T09:48:13.400Z,1002.44
2023-03-26T09:49:13.283Z,1002.47
2023-03-26T09:50:13.170Z,1002.44
2023-03-26T09:51:13.241Z,1002.46
2023-03-26T09:52:13.104Z,1002.46
2023-03-26T09:53:13.009Z,1002.44
2023-03-26T09:54:12.832Z,1002.44
2023-03-26T09:55:13.892Z,1002.45
2023-03-26T09:56:12.752Z,1002.44
2023-03-26T09:57:13.793Z,1002.47
2023-03-26T09:58:13.774Z,1002.42
2023-03-26T09:59:14.067Z,1002.44
2023-03-26T10:00:12.978Z,1002.44
2023-03-26T10:01:13.189Z,1002.42
2023-03-26T10:02:13.427Z,1002.42
2023-03-26T10:03:13.915Z,1002.44
2023-03-26T10:04:12.768Z,1002.41
2023-03-26T10:05:13.966Z,1002.42
2023-03-26T10:06:13.175Z,1002.39
2023-03-26T10:07:13.194Z,1002.40
2023-03-26T10:08:13.427Z,1002.40
2023-03-26T10:09:13.563Z,1002.40
2023-03-26T10:10:13.443Z,1002.41
2023-03-26T10:11:13.788Z,1002.37
2023-03-26T10:12:14.158Z,1002.34
2023-03-26T10:13:14.954Z,1002.39
2023-03-26T10:14:13.141Z,1002.36
2023-03-26T10:15:13.063Z,1002.36
2023-03-26T10:16:12.979Z,1002.38
2023-03-26T10:17:13.002Z,1002.36
2023-03-26T10:18:26.608Z,1002.38
2023-03-26T10:19:13.472Z,1002.33
2023-03-26T10:20:13.444Z,1002.35
2023-03-26T10:21:13.385Z,1002.32
2023-03-26T10:22:13.421Z,1002.29
2023-03-26T10:23:13.513Z,1002.32
2023-03-26T10:24:13.648Z,1002.28
2023-03-26T10:25:13.613Z,1002.31
2023-03-26T10:26:13.445Z,1002.26
2023-03-26T10:27:13.376Z,1002.30
2023-03-26T10:28:13.280Z,1002.27
2023-03-26T10:29:13.225Z,1002.29
2023-03-26T10:30:13.110Z,1002.27
2023-03-26T10:31:13.225Z,1002.27
2023-03-26T10:32:13.258Z,1002.27
2023-03-26T10:33:13.173Z,1002.22
2023-03-26T10:34:28.601Z,1002.24
2023-03-26T10:35:13.472Z,1002.20
2023-03-26T10:36:13.525Z,1002.22
2023-03-26T10:37:13.865Z,1002.18
2023-03-26T10:38:14.115Z,1002.16
2023-03-26T10:39:36.274Z,1002.19
2023-03-26T10:40:13.170Z,1002.16
2023-03-26T10:41:13.371Z,1002.21
2023-03-26T10:42:13.500Z,1002.21
2023-03-26T10:43:13.476Z,1002.21
2023-03-26T10:44:13.432Z,1002.20
2023-03-26T10:45:13.418Z,1002.15
2023-03-26T10:46:13.723Z,1002.18
2023-03-26T10:47:13.901Z,1002.15
2023-03-26T10:48:12.924Z,1002.15
2023-03-26T10:49:12.768Z,1002.18
2023-03-26T10:50:15.032Z,1002.17
2023-03-26T10:51:13.264Z,1002.18
2023-03-26T10:52:13.301Z,1002.16
2023-03-26T10:53:13.186Z,1002.18
2023-03-26T10:54:13.130Z,1002.17
2023-03-26T10:55:13.298Z,1002.16
2023-03-26T10:56:13.317Z,1002.15
2023-03-26T10:57:13.378Z,1002.11
2023-03-26T10:58:13.490Z,1002.14
2023-03-26T10:59:13.533Z,1002.18
2023-03-26T11:00:13.722Z,1002.14
2023-03-26T11:01:14.033Z,1002.16
2023-03-26T11:02:13.122Z,1002.16
2023-03-26T11:03:13.274Z,1002.10
2023-03-26T11:04:13.352Z,1002.12
2023-03-26T11:05:13.885Z,1002.13
2023-03-26T11:06:13.197Z,1002.07
2023-03-26T11:07:13.517Z,1002.08
2023-03-26T11:08:13.486Z,1002.08
2023-03-26T11:09:13.416Z,1002.04
2023-03-26T11:10:13.574Z,1002.03
2023-03-26T11:11:13.573Z,1002.08
2023-03-26T11:12:27.348Z,1002.09
2023-03-26T11:13:13.532Z,1002.10
2023-03-26T11:14:18.979Z,1002.10
2023-03-26T11:15:13.639Z,1002.11
2023-03-26T11:16:13.761Z,1002.11
2023-03-26T11:17:14.890Z,1002.06
2023-03-26T11:18:12.976Z,1002.12
2023-03-26T11:19:13.116Z,1002.09
2023-03-26T11:20:13.043Z,1002.08
2023-03-26T11:21:18.904Z,1002.05
2023-03-26T11:22:13.713Z,1002.08
2023-03-26T11:23:13.638Z,1002.08
2023-03-26T11:24:15.042Z,1002.10
2023-03-26T11:25:12.954Z,1002.06
2023-03-26T11:26:12.931Z,1002.10
2023-03-26T11:27:17.460Z,1002.07
2023-03-26T11:28:14.006Z,1002.06
2023-03-26T11:29:32.235Z,1002.04
2023-03-26T11:30:13.163Z,1002.08
2023-03-26T11:31:13.444Z,1002.06
2023-03-26T11:32:13.671Z,1002.07
2023-03-26T11:33:13.852Z,1002.08
2023-03-26T11:34:14.095Z,1002.06
2023-03-26T11:35:13.096Z,1002.08
2023-03-26T11:36:13.634Z,1002.08
2023-03-26T11:37:13.677Z,1002.05
2023-03-26T11:38:13.613Z,1002.06
2023-03-26T11:39:13.498Z,1002.06
2023-03-26T11:40:13.544Z,1002.05
2023-03-26T11:41:13.463Z,1002.06
2023-03-26T11:42:13.660Z,1002.04
2023-03-26T11:43:13.543Z,1002.01
2023-03-26T11:44:13.434Z,1002.01
2023-03-26T11:45:18.430Z,1002.02
2023-03-26T11:46:13.336Z,1002.02
2023-03-26T11:47:13.258Z,1001.98
2023-03-26T11:48:13.421Z,1001.99
2023-03-26T11:49:13.452Z,1001.99
2023-03-26T11:50:18.382Z,1001.99
2023-03-26T11:51:13.396Z,1001.97
2023-03-26T11:52:13.358Z,1001.97
2023-03-26T11:53:13.278Z,1001.94
2023-03-26T11:54:13.488Z,1001.98
2023-03-26T11:55:13.535Z,1001.91
2023-03-26T11:56:13.497Z,1001.92
2023-03-26T11:57:13.696Z,1001.90
2023-03-26T11:58:13.676Z,1001.95
2023-03-26T11:59:13.977Z,1001.95
2023-03-26T12:00:12.909Z,1001.93
2023-03-26T12:01:13.121Z,1001.89
2023-03-26T12:02:13.186Z,1001.92
2023-03-26T12:03:13.555Z,1001.92
2023-03-26T12:04:13.952Z,1001.92
2023-03-26T12:05:13.395Z,1001.93